createdAt,value
2022-10-30T00:01:13.038Z,13.77
2022-10-30T00:03:39.576Z,13.79
2022-10-30T00:06:06.508Z,13.77
2022-10-30T00:08:33.605Z,13.76
2022-10-30T00:11:13.749Z,13.90
2022-10-30T00:13:42.478Z,14.03
2022-10-30T00:16:09.803Z,14.12
2022-10-30T00:18:38.372Z,14.21
2022-10-30T00:21:09.684Z,14.46
2022-10-30T00:23:36.153Z,14.67
2022-10-30T00:26:08.075Z,14.71
2022-10-30T00:28:34.876Z,14.70
2022-10-30T00:31:05.281Z,14.66
2022-10-30T00:33:32.145Z,14.68
2022-10-30T00:35:59.505Z,14.80
2022-10-30T00:38:26.207Z,15.03
2022-10-30T00:40:52.719Z,15.15
2022-10-30T00:43:35.213Z,15.25
2022-10-30T00:46:16.531Z,15.37
2022-10-30T00:48:48.213Z,15.41
2022-10-30T00:51:15.080Z,15.44
2022-10-30T00:53:42.982Z,15.45
2022-10-30T00:56:11.525Z,15.40
2022-10-30T00:58:52.839Z,15.35
2022-10-30T01:01:24.421Z,15.27
2022-10-30T01:03:54.582Z,15.23
2022-10-30T01:06:22.861Z,15.19
2022-10-30T01:08:55.291Z,15.19
2022-10-30T01:11:25.812Z,15.21
2022-10-30T01:13:55.957Z,15.24
2022-10-30T01:16:42.879Z,15.23
2022-10-30T01:19:25.262Z,15.26
2022-10-30T01:22:13.578Z,15.28
2022-10-30T01:24:40.054Z,15.34
2022-10-30T01:27:36.328Z,15.30
2022-10-30T01:30:31.104Z,15.29
2022-10-30T01:33:24.344Z,15.32
2022-10-30T01:36:11.225Z,15.31
2022-10-30T01:38:44.352Z,15.34
2022-10-30T01:41:10.878Z,15.34
2022-10-30T01:43:38.263Z,15.34
2022-10-30T01:46:17.028Z,15.37
2022-10-30T01:49:03.311Z,15.46
2022-10-30T01:52:13.644Z,15.41
2022-10-30T01:54:53.548Z,15.35
2022-10-30T01:57:31.878Z,15.31
2022-10-30T02:00:04.165Z,15.28
2022-10-30T02:02:39.721Z,15.30
2022-10-30T02:05:09.851Z,15.32
2022-10-30T02:07:36.765Z,15.27
2022-10-30T02:10:05.489Z,15.45
2022-10-30T02:12:32.077Z,15.45
2022-10-30T02:15:00.709Z,15.45
2022-10-30T02:17:28.321Z,15.42
2022-10-30T02:19:55.111Z,15.37
2022-10-30T02:22:24.764Z,15.39
2022-10-30T02:24:52.692Z,15.36
2022-10-30T02:27:23.072Z,15.36
2022-10-30T02:29:49.820Z,15.31
2022-10-30T02:32:16.545Z,15.28
2022-10-30T02:34:44.089Z,15.21
2022-10-30T02:37:10.796Z,15.13
2022-10-30T02:39:38.524Z,15.08
2022-10-30T02:42:05.718Z,15.03
2022-10-30T02:44:32.224Z,15.00
2022-10-30T02:46:58.687Z,14.97
2022-10-30T02:49:25.173Z,14.93
2022-10-30T02:51:51.966Z,14.88
2022-10-30T02:54:18.498Z,14.90
2022-10-30T02:56:45.584Z,14.91
2022-10-30T02:59:12.185Z,14.88
2022-10-30T03:01:38.886Z,14.85
2022-10-30T03:04:05.522Z,14.75
2022-10-30T03:06:32.123Z,14.66
2022-10-30T03:08:58.908Z,14.59
2022-10-30T03:11:26.034Z,14.53
2022-10-30T03:13:54.583Z,14.45
2022-10-30T03:16:26.670Z,14.41
2022-10-30T03:18:55.255Z,14.37
2022-10-30T03:21:25.397Z,14.29
2022-10-30T03:23:52.456Z,14.27
2022-10-30T03:26:20.272Z,14.24
2022-10-30T03:28:50.704Z,14.21
2022-10-30T03:31:19.177Z,14.18
2022-10-30T03:33:48.543Z,14.20
2022-10-30T03:36:15.711Z,14.22
2022-10-30T03:38:43.428Z,14.25
2022-10-30T03:41:13.368Z,14.31
2022-10-30T03:43:39.847Z,14.31
2022-10-30T03:46:06.420Z,14.31
2022-10-30T03:48:33.664Z,14.28
2022-10-30T03:51:00.223Z,14.27
2022-10-30T03:53:29.088Z,14.29
2022-10-30T03:56:01.004Z,14.23
2022-10-30T03:58:36.347Z,14.26
2022-10-30T04:01:05.915Z,14.36
2022-10-30T04:03:35.849Z,14.44
2022-10-30T04:06:03.024Z,14.39
2022-10-30T04:08:29.474Z,14.39
2022-10-30T04:10:57.047Z,14.36
2022-10-30T04:13:23.613Z,14.26
2022-10-30T04:15:57.239Z,14.21
2022-10-30T04:18:26.113Z,14.19
2022-10-30T04:20:53.664Z,14.20
2022-10-30T04:23:21.474Z,14.19
2022-10-30T04:25:48.349Z,14.21
2022-10-30T04:28:15.420Z,14.24
2022-10-30T04:30:42.541Z,14.23
2022-10-30T04:33:12.900Z,14.24
2022-10-30T04:35:42.520Z,14.23
2022-10-30T04:38:16.053Z,14.21
2022-10-30T04:40:44.447Z,14.18
2022-10-30T04:43:13.811Z,14.19
2022-10-30T04:45:41.940Z,14.21
2022-10-30T04:48:12.570Z,14.20
2022-10-30T04:50:39.517Z,14.18
2022-10-30T04:53:10.241Z,14.16
2022-10-30T04:55:36.688Z,14.13
2022-10-30T04:58:04.367Z,14.14
2022-10-30T05:00:35.372Z,14.11
2022-10-30T05:03:19.418Z,14.11
2022-10-30T05:05:47.933Z,14.12
2022-10-30T05:08:14.565Z,14.11
2022-10-30T05:10:41.185Z,14.07
2022-10-30T05:13:11.608Z,14.02
2022-10-30T05:15:38.363Z,13.93
2022-10-30T05:18:04.923Z,13.88
2022-10-30T05:20:31.550Z,13.82
2022-10-30T05:22:59.764Z,13.78
2022-10-30T05:25:27.941Z,13.76
2022-10-30T05:27:59.764Z,13.73
2022-10-30T05:30:30.731Z,13.68
2022-10-30T05:33:03.468Z,13.60
2022-10-30T05:35:32.656Z,13.56
2022-10-30T05:38:00.559Z,13.53
2022-10-30T05:40:27.737Z,13.56
2022-10-30T05:42:54.424Z,13.52
2022-10-30T05:45:22.252Z,13.50
2022-10-30T05:48:04.282Z,13.49
2022-10-30T05:50:37.353Z,13.44
2022-10-30T05:53:33.044Z,13.43
2022-10-30T05:56:00.267Z,13.41
2022-10-30T05:58:31.342Z,13.41
2022-10-30T06:01:05.441Z,13.37
2022-10-30T06:03:39.841Z,13.34
2022-10-30T06:06:07.000Z,13.32
2022-10-30T06:08:33.525Z,13.27
2022-10-30T06:11:05.640Z,13.25
2022-10-30T06:13:38.920Z,13.20
2022-10-30T06:16:16.303Z,13.14
2022-10-30T06:19:18.901Z,13.17
2022-10-30T06:21:49.235Z,13.16
2022-10-30T06:24:35.951Z,13.17
2022-10-30T06:27:22.371Z,13.17
2022-10-30T06:29:49.190Z,13.18
2022-10-30T06:32:16.001Z,13.16
2022-10-30T06:34:44.832Z,13.20
2022-10-30T06:37:13.039Z,13.22
2022-10-30T06:39:39.964Z,13.24
2022-10-30T06:42:29.306Z,13.21
2022-10-30T06:45:08.319Z,13.18
2022-10-30T06:47:36.166Z,13.21
2022-10-30T06:50:04.351Z,13.25
2022-10-30T06:52:30.989Z,13.29
2022-10-30T06:54:57.611Z,13.28
2022-10-30T06:57:41.328Z,13.23
2022-10-30T07:00:20.917Z,13.26
2022-10-30T07:03:13.951Z,13.32
2022-10-30T07:05:40.724Z,13.37
2022-10-30T07:08:07.280Z,13.44
2022-10-30T07:10:34.300Z,13.49
2022-10-30T07:13:23.866Z,13.53
2022-10-30T07:16:03.114Z,13.59
2022-10-30T07:18:36.335Z,13.63
2022-10-30T07:21:02.947Z,13.72
2022-10-30T07:23:30.800Z,13.79
2022-10-30T07:26:08.569Z,13.89
2022-10-30T07:28:44.043Z,13.92
2022-10-30T07:31:34.780Z,14.01
2022-10-30T07:34:16.746Z,14.07
2022-10-30T07:37:03.177Z,14.14
2022-10-30T07:39:39.462Z,14.17
2022-10-30T07:42:21.671Z,14.24
2022-10-30T07:45:07.367Z,14.27
2022-10-30T07:47:52.678Z,14.34
2022-10-30T07:50:29.589Z,14.37
2022-10-30T07:52:56.229Z,14.43
2022-10-30T07:55:26.415Z,14.49
2022-10-30T07:57:52.918Z,14.55
2022-10-30T08:00:57.796Z,14.64
2022-10-30T08:03:30.813Z,14.69
2022-10-30T08:06:04.931Z,14.74
2022-10-30T08:08:37.837Z,14.76
2022-10-30T08:11:23.735Z,14.80
2022-10-30T08:13:50.864Z,14.82
2022-10-30T08:16:18.456Z,14.82
2022-10-30T08:18:44.959Z,14.82
2022-10-30T08:21:11.678Z,14.82
2022-10-30T08:23:47.531Z,14.87
2022-10-30T08:26:16.952Z,14.86
2022-10-30T08:28:43.486Z,14.89
2022-10-30T08:31:11.312Z,14.95
2022-10-30T08:33:56.250Z,15.04
2022-10-30T08:36:49.425Z,15.05
2022-10-30T08:39:17.416Z,15.11
2022-10-30T08:41:59.043Z,15.16
2022-10-30T08:44:28.179Z,15.26
2022-10-30T08:47:27.101Z,15.36
2022-10-30T08:49:54.072Z,15.42
2022-10-30T08:52:24.992Z,15.48
2022-10-30T08:54:55.165Z,15.59
2022-10-30T08:57:23.916Z,15.71
2022-10-30T08:59:51.507Z,15.78
2022-10-30T09:02:50.289Z,15.87
2022-10-30T09:05:32.104Z,15.98
2022-10-30T09:08:24.787Z,16.13
2022-10-30T09:11:26.525Z,16.15
2022-10-30T09:13:53.345Z,16.24
2022-10-30T09:16:19.957Z,16.40
2022-10-30T09:18:46.396Z,16.49
2022-10-30T09:21:12.919Z,16.57
2022-10-30T09:23:44.377Z,16.59
2022-10-30T09:26:29.719Z,16.67
2022-10-30T09:29:16.512Z,16.68
2022-10-30T09:32:05.058Z,16.72
2022-10-30T09:34:32.591Z,16.91
2022-10-30T09:37:06.141Z,16.93
2022-10-30T09:39:36.394Z,16.98
2022-10-30T09:42:25.159Z,17.04
2022-10-30T09:45:30.157Z,17.11
2022-10-30T09:48:14.440Z,17.22
2022-10-30T09:51:35.345Z,17.27
2022-10-30T09:54:12.040Z,17.34
2022-10-30T09:57:01.077Z,17.38
2022-10-30T09:59:45.561Z,17.49
2022-10-30T10:02:28.238Z,17.51
2022-10-30T10:05:06.049Z,17.63
2022-10-30T10:08:03.870Z,17.62
2022-10-30T10:10:57.730Z,17.69
2022-10-30T10:13:57.322Z,17.77
2022-10-30T10:16:29.088Z,17.83
2022-10-30T10:19:08.971Z,17.93
2022-10-30T10:21:58.254Z,18.01
2022-10-30T10:24:29.364Z,18.03
2022-10-30T10:27:18.238Z,18.12
2022-10-30T10:30:06.617Z,18.24
2022-10-30T10:33:11.331Z,18.29
2022-10-30T10:35:53.358Z,18.30
2022-10-30T10:38:39.243Z,18.37
2022-10-30T10:41:21.412Z,18.41
2022-10-30T10:44:12.796Z,18.45
2022-10-30T10:46:42.200Z,18.54
2022-10-30T10:49:35.866Z,18.56
2022-10-30T10:52:13.263Z,18.66
2022-10-30T10:54:44.984Z,18.75
2022-10-30T10:57:25.888Z,18.77
2022-10-30T11:00:00.966Z,18.77
2022-10-30T11:02:33.503Z,18.75
2022-10-30T11:05:05.973Z,18.77
2022-10-30T11:07:37.080Z,18.86
2022-10-30T11:10:18.301Z,18.95
2022-10-30T11:12:45.456Z,19.03
2022-10-30T11:15:33.132Z,19.08
2022-10-30T11:21:16.493Z,19.14
2022-10-30T11:23:48.711Z,19.18
2022-10-30T11:26:18.232Z,19.25
2022-10-30T11:28:55.138Z,19.33
2022-10-30T11:31:37.902Z,19.35
2022-10-30T11:34:19.885Z,19.39
2022-10-30T11:36:48.679Z,19.44
2022-10-30T11:39:22.531Z,19.48
2022-10-30T11:42:01.835Z,19.59
2022-10-30T11:44:38.467Z,19.63
2022-10-30T11:47:07.864Z,19.65
2022-10-30T11:49:52.577Z,19.69
2022-10-30T11:52:26.417Z,19.72
2022-10-30T11:54:57.305Z,19.88
2022-10-30T11:57:42.380Z,19.91
2022-10-30T12:00:21.555Z,19.96
2022-10-30T12:02:51.522Z,20.01
2022-10-30T12:05:27.170Z,20.17
2022-10-30T12:07:55.337Z,20.12
2022-10-30T12:10:26.414Z,20.14
2022-10-30T12:12:53.329Z,20.16
2022-10-30T12:15:24.339Z,20.29
2022-10-30T12:18:03.057Z,20.32
2022-10-30T12:20:30.040Z,20.40
2022-10-30T12:22:57.860Z,20.44
2022-10-30T12:25:32.035Z,20.67
2022-10-30T12:28:07.758Z,20.72
2022-10-30T12:30:47.904Z,20.81
2022-10-30T12:33:25.020Z,20.77
2022-10-30T12:35:58.965Z,20.73
2022-10-30T12:38:38.088Z,20.72
2022-10-30T12:41:20.569Z,20.83
2022-10-30T12:43:58.283Z,20.95
2022-10-30T12:46:40.349Z,21.13
2022-10-30T12:49:31.849Z,21.05
2022-10-30T12:52:07.486Z,20.93
2022-10-30T12:54:42.472Z,20.90
2022-10-30T12:57:12.133Z,20.87
2022-10-30T13:00:14.651Z,20.83
2022-10-30T13:03:19.985Z,20.83
2022-10-30T13:06:10.622Z,20.83
2022-10-30T13:08:46.028Z,20.84
2022-10-30T13:11:44.306Z,20.88
2022-10-30T13:14:18.479Z,20.90
2022-10-30T13:16:45.043Z,20.84
2022-10-30T13:19:13.473Z,21.01
2022-10-30T13:21:46.047Z,21.01
2022-10-30T13:24:19.075Z,20.95
2022-10-30T13:27:07.636Z,20.86
2022-10-30T13:29:40.245Z,20.75
2022-10-30T13:32:17.468Z,20.69
2022-10-30T13:35:15.703Z,20.66
2022-10-30T13:37:47.401Z,20.63
2022-10-30T13:40:38.358Z,20.63
2022-10-30T13:43:28.652Z,20.60
2022-10-30T13:46:02.003Z,20.60
2022-10-30T13:49:09.457Z,20.62
2022-10-30T13:51:45.229Z,20.54
2022-10-30T13:54:22.446Z,20.54
2022-10-30T13:56:50.532Z,20.62
2022-10-30T13:59:44.341Z,20.60
2022-10-30T14:02:40.764Z,20.47
2022-10-30T14:05:26.155Z,20.45
2022-10-30T14:08:06.375Z,20.53
2022-10-30T14:10:46.104Z,20.54
2022-10-30T14:13:26.850Z,20.68
2022-10-30T14:16:02.528Z,20.63
2022-10-30T14:18:44.498Z,20.53
2022-10-30T14:21:34.938Z,20.54
2022-10-30T14:24:12.156Z,20.46
2022-10-30T14:26:45.267Z,20.37
2022-10-30T14:29:32.955Z,20.34
2022-10-30T14:32:00.521Z,20.33
2022-10-30T14:34:51.564Z,20.28
2022-10-30T14:37:24.120Z,20.31
2022-10-30T14:39:51.701Z,20.34
2022-10-30T14:42:44.212Z,20.29
2022-10-30T14:45:27.906Z,20.33
2022-10-30T14:48:13.193Z,20.24
2022-10-30T14:50:58.429Z,20.12
2022-10-30T14:53:46.785Z,20.04
2022-10-30T14:59:13.824Z,20.01
2022-10-30T15:01:50.403Z,19.91
2022-10-30T15:04:40.514Z,19.79
2022-10-30T15:07:24.431Z,19.70
2022-10-30T15:09:51.449Z,19.61
2022-10-30T15:12:48.750Z,19.52
2022-10-30T15:15:18.820Z,19.43
2022-10-30T15:17:48.250Z,19.34
2022-10-30T15:20:36.923Z,19.21
2022-10-30T15:23:18.972Z,19.09
2022-10-30T15:25:54.837Z,18.98
2022-10-30T15:31:00.296Z,18.79
2022-10-30T15:33:32.909Z,18.73
2022-10-30T15:35:59.605Z,18.66
2022-10-30T15:38:26.064Z,18.61
2022-10-30T15:40:59.083Z,18.54
2022-10-30T15:43:35.368Z,18.43
2022-10-30T15:46:09.496Z,18.32
2022-10-30T15:48:39.226Z,18.20
2022-10-30T15:51:23.149Z,18.10
2022-10-30T15:54:00.842Z,18.01
2022-10-30T15:56:41.134Z,17.87
2022-10-30T15:59:36.735Z,17.74
2022-10-30T16:02:03.765Z,17.65
2022-10-30T16:04:36.589Z,17.56
2022-10-30T16:07:17.813Z,17.47
2022-10-30T16:09:59.291Z,17.41
2022-10-30T16:12:27.868Z,17.38
2022-10-30T16:14:56.274Z,17.34
2022-10-30T16:17:25.457Z,17.30
2022-10-30T16:19:56.614Z,17.24
2022-10-30T16:22:33.901Z,17.18
2022-10-30T16:25:07.306Z,17.15
2022-10-30T16:27:33.851Z,17.12
2022-10-30T16:30:01.016Z,17.11
2022-10-30T16:32:31.161Z,17.05
2022-10-30T16:35:00.295Z,16.99
2022-10-30T16:37:34.007Z,16.90
2022-10-30T16:40:06.560Z,16.80
2022-10-30T16:42:33.750Z,16.72
2022-10-30T16:45:33.780Z,16.59
2022-10-30T16:48:09.244Z,16.51
2022-10-30T16:50:38.419Z,16.41
2022-10-30T16:53:19.303Z,16.33
2022-10-30T16:55:46.197Z,16.27
2022-10-30T16:58:14.646Z,16.22
2022-10-30T17:00:47.927Z,16.16
2022-10-30T17:03:14.550Z,16.06
2022-10-30T17:05:44.641Z,16.02
2022-10-30T17:08:17.015Z,15.96
2022-10-30T17:10:59.540Z,15.88
2022-10-30T17:13:36.856Z,15.82
2022-10-30T17:16:24.796Z,15.77
2022-10-30T17:18:54.367Z,15.72
2022-10-30T17:21:35.360Z,15.67
2022-10-30T17:24:03.238Z,15.62
2022-10-30T17:26:31.953Z,15.57
2022-10-30T17:28:58.518Z,15.54
2022-10-30T17:31:37.024Z,15.54
2022-10-30T17:34:03.544Z,15.51
2022-10-30T17:36:30.084Z,15.47
2022-10-30T17:38:56.557Z,15.42
2022-10-30T17:41:23.142Z,15.38
2022-10-30T17:43:53.075Z,15.35
2022-10-30T17:46:20.843Z,15.31
2022-10-30T17:48:47.717Z,15.27
2022-10-30T17:51:15.322Z,15.25
2022-10-30T17:53:42.247Z,15.21
2022-10-30T17:56:17.674Z,15.17
2022-10-30T17:58:44.151Z,15.14
2022-10-30T18:01:25.731Z,15.09
2022-10-30T18:03:57.503Z,15.07
2022-10-30T18:06:27.246Z,15.02
2022-10-30T18:08:54.519Z,14.99
2022-10-30T18:11:23.727Z,14.99
2022-10-30T18:13:51.925Z,14.95
2022-10-30T18:16:19.365Z,14.92
2022-10-30T18:18:46.060Z,14.92
2022-10-30T18:21:17.941Z,14.94
2022-10-30T18:23:52.451Z,14.92
2022-10-30T18:26:25.011Z,14.88
2022-10-30T18:28:51.958Z,14.87
2022-10-30T18:31:21.173Z,14.84
2022-10-30T18:33:48.525Z,14.81
2022-10-30T18:36:20.513Z,14.79
2022-10-30T18:38:47.344Z,14.78
2022-10-30T18:41:20.742Z,14.79
2022-10-30T18:43:47.630Z,14.80
2022-10-30T18:46:15.616Z,14.81
2022-10-30T18:48:42.302Z,14.84
2022-10-30T18:51:17.943Z,14.89
2022-10-30T18:53:54.305Z,14.99
2022-10-30T18:56:28.816Z,15.06
2022-10-30T18:59:01.556Z,15.09
2022-10-30T19:01:30.837Z,15.12
2022-10-30T19:04:00.699Z,15.12
2022-10-30T19:06:27.205Z,15.11
2022-10-30T19:08:54.117Z,15.13
2022-10-30T19:11:24.564Z,15.11
2022-10-30T19:13:53.438Z,15.11
2022-10-30T19:16:21.561Z,15.10
2022-10-30T19:18:49.116Z,15.07
2022-10-30T19:21:21.503Z,15.05
2022-10-30T19:23:49.368Z,15.04
2022-10-30T19:26:17.545Z,15.03
2022-10-30T19:28:45.522Z,15.00
2022-10-30T19:31:17.717Z,14.99
2022-10-30T19:33:44.940Z,14.99
2022-10-30T19:36:28.257Z,14.92
2022-10-30T19:38:55.492Z,14.90
2022-10-30T19:41:22.877Z,14.80
2022-10-30T19:43:49.513Z,14.73
2022-10-30T19:46:16.288Z,14.66
2022-10-30T19:48:59.289Z,14.59
2022-10-30T19:51:28.873Z,14.52
2022-10-30T19:53:56.163Z,14.47
2022-10-30T19:56:23.514Z,14.42
2022-10-30T19:58:50.337Z,14.37
2022-10-30T20:01:17.325Z,14.33
2022-10-30T20:03:43.898Z,14.29
2022-10-30T20:06:13.708Z,14.25
2022-10-30T20:08:40.233Z,14.21
2022-10-30T20:11:07.215Z,14.16
2022-10-30T20:13:34.071Z,14.11
2022-10-30T20:16:04.631Z,14.07
2022-10-30T20:18:34.119Z,14.03
2022-10-30T20:21:03.023Z,14.01
2022-10-30T20:23:29.542Z,13.96
2022-10-30T20:26:06.393Z,13.92
2022-10-30T20:28:37.123Z,13.90
2022-10-30T20:31:04.761Z,13.88
2022-10-30T20:33:31.392Z,13.87
2022-10-30T20:35:57.909Z,13.80
2022-10-30T20:38:29.353Z,13.76
2022-10-30T20:40:57.419Z,13.70
2022-10-30T20:43:37.893Z,13.70
2022-10-30T20:46:07.347Z,13.68
2022-10-30T20:48:33.808Z,13.67
2022-10-30T20:51:04.192Z,13.67
2022-10-30T20:53:30.651Z,13.68
2022-10-30T20:55:57.507Z,13.67
2022-10-30T20:58:24.161Z,13.67
2022-10-30T21:00:51.277Z,13.69
2022-10-30T21:03:18.158Z,13.71
2022-10-30T21:05:46.036Z,13.71
2022-10-30T21:08:14.060Z,13.73
2022-10-30T21:10:41.543Z,13.76
2022-10-30T21:13:09.550Z,13.73
2022-10-30T21:15:42.949Z,13.74
2022-10-30T21:18:11.251Z,13.77
2022-10-30T21:20:37.819Z,13.77
2022-10-30T21:23:05.293Z,13.71
2022-10-30T21:25:32.457Z,13.65
2022-10-30T21:27:59.314Z,13.60
2022-10-30T21:30:26.132Z,13.60
2022-10-30T21:32:52.623Z,13.53
2022-10-30T21:35:19.600Z,13.48
2022-10-30T21:37:46.107Z,13.45
2022-10-30T21:40:13.225Z,13.40
2022-10-30T21:42:39.717Z,13.42
2022-10-30T21:45:07.068Z,13.37
2022-10-30T21:47:34.308Z,13.31
2022-10-30T21:50:00.791Z,13.31
2022-10-30T21:52:27.194Z,13.34
2022-10-30T21:54:53.751Z,13.35
2022-10-30T21:57:20.547Z,13.29
2022-10-30T21:59:47.045Z,13.25
2022-10-30T22:02:15.222Z,13.22
2022-10-30T22:04:42.181Z,13.20
2022-10-30T22:07:08.727Z,13.20
2022-10-30T22:09:35.292Z,13.16
2022-10-30T22:12:03.515Z,13.13
2022-10-30T22:14:30.060Z,13.09
2022-10-30T22:16:56.716Z,13.09
2022-10-30T22:19:23.297Z,13.06
2022-10-30T22:21:49.839Z,13.07
2022-10-30T22:24:17.251Z,13.03
2022-10-30T22:26:44.178Z,13.02
2022-10-30T22:29:11.570Z,13.03
2022-10-30T22:31:38.176Z,13.02
2022-10-30T22:34:04.843Z,13.04
2022-10-30T22:36:32.937Z,13.07
2022-10-30T22:39:05.822Z,13.07
2022-10-30T22:41:37.356Z,13.04
2022-10-30T22:44:07.428Z,13.07
2022-10-30T22:46:34.407Z,13.08
2022-10-30T22:49:00.883Z,13.08
2022-10-30T22:51:28.157Z,13.07
2022-10-30T22:53:59.797Z,13.09
2022-10-30T22:56:28.782Z,13.07
2022-10-30T22:58:56.151Z,12.99
2022-10-30T23:01:27.212Z,12.95
2022-10-30T23:03:59.021Z,12.97
2022-10-30T23:06:26.570Z,12.94
2022-10-30T23:08:55.483Z,13.01
2022-10-30T23:11:23.222Z,13.05
2022-10-30T23:13:50.631Z,13.04
2022-10-30T23:16:20.663Z,13.04
2022-10-30T23:18:47.914Z,13.05
2022-10-30T23:21:20.800Z,13.04
2022-10-30T23:23:47.561Z,13.08
2022-10-30T23:26:17.963Z,13.06
2022-10-30T23:28:45.981Z,13.04
2022-10-30T23:31:19.795Z,13.08
2022-10-30T23:33:48.647Z,13.10
2022-10-30T23:36:16.113Z,13.14
2022-10-30T23:38:42.841Z,13.19
2022-10-30T23:41:09.597Z,13.21
2022-10-30T23:43:36.058Z,13.29
2022-10-30T23:46:02.553Z,13.27
2022-10-30T23:48:29.100Z,13.27
2022-10-30T23:50:55.733Z,13.29
2022-10-30T23:53:22.289Z,13.29
2022-10-30T23:55:50.910Z,13.21
2022-10-30T23:58:17.660Z,13.20
